createdAt,value
2022-11-21T00:02:00.715Z,-1.68
2022-11-21T00:04:30.319Z,-1.69
2022-11-21T00:06:59.847Z,-1.66
2022-11-21T00:09:29.817Z,-1.74
2022-11-21T00:12:01.914Z,-1.83
2022-11-21T00:14:31.300Z,-1.74
2022-11-21T00:17:00.748Z,-1.70
2022-11-21T00:19:30.231Z,-1.69
2022-11-21T00:21:59.640Z,-1.70
2022-11-21T00:24:29.309Z,-1.78
2022-11-21T00:27:01.595Z,-1.80
2022-11-21T00:29:31.054Z,-1.87
2022-11-21T00:32:00.572Z,-1.94
2022-11-21T00:34:30.302Z,-1.89
2022-11-21T00:36:59.781Z,-1.86
2022-11-21T00:39:29.416Z,-1.87
2022-11-21T00:42:01.554Z,-1.82
2022-11-21T00:44:31.751Z,-1.87
2022-11-21T00:47:01.270Z,-1.88
2022-11-21T00:49:30.756Z,-1.98
2022-11-21T00:52:00.256Z,-2.10
2022-11-21T00:54:29.950Z,-2.13
2022-11-21T00:57:02.149Z,-2.19
2022-11-21T00:59:31.724Z,-2.20
2022-11-21T01:02:01.427Z,-2.26
2022-11-21T01:04:33.567Z,-2.31
2022-11-21T01:07:03.490Z,-2.44
2022-11-21T01:09:33.399Z,-2.43
2022-11-21T01:12:05.494Z,-2.46
2022-11-21T01:14:34.978Z,-2.49
2022-11-21T01:17:04.489Z,-2.46
2022-11-21T01:19:33.990Z,-2.64
2022-11-21T01:22:03.539Z,-2.74
2022-11-21T01:24:33.131Z,-2.79
2022-11-21T01:27:05.160Z,-2.78
2022-11-21T01:29:34.630Z,-2.78
2022-11-21T01:32:04.117Z,-2.73
2022-11-21T01:34:33.602Z,-2.72
2022-11-21T01:37:03.097Z,-2.65
2022-11-21T01:39:32.563Z,-2.64
2022-11-21T01:42:02.073Z,-2.73
2022-11-21T01:44:53.551Z,-2.74
2022-11-21T01:47:23.682Z,-2.67
2022-11-21T01:49:54.556Z,-2.68
2022-11-21T01:52:25.863Z,-2.68
2022-11-21T01:54:57.931Z,-2.66
2022-11-21T01:57:30.478Z,-2.66
2022-11-21T02:00:04.686Z,-2.73
2022-11-21T02:02:36.646Z,-2.76
2022-11-21T02:05:09.068Z,-2.73
2022-11-21T02:07:42.656Z,-2.72
2022-11-21T02:10:13.334Z,-2.73
2022-11-21T02:12:46.488Z,-2.80
2022-11-21T02:15:18.902Z,-2.63
2022-11-21T02:17:48.336Z,-2.70
2022-11-21T02:20:18.984Z,-2.83
2022-11-21T02:22:54.552Z,-2.97
2022-11-21T02:25:28.843Z,-3.01
2022-11-21T02:28:01.258Z,-3.06
2022-11-21T02:30:31.720Z,-3.02
2022-11-21T02:33:01.741Z,-2.99
2022-11-21T02:35:31.292Z,-3.13
2022-11-21T02:38:02.559Z,-3.23
2022-11-21T02:40:36.518Z,-3.25
2022-11-21T02:43:11.015Z,-3.35
2022-11-21T02:45:42.549Z,-3.23
2022-11-21T02:48:12.602Z,-3.20
2022-11-21T02:50:43.481Z,-3.34
2022-11-21T02:53:14.211Z,-3.34
2022-11-21T02:55:46.393Z,-3.48
2022-11-21T02:58:15.887Z,-3.43
2022-11-21T03:00:45.525Z,-3.41
2022-11-21T03:03:15.126Z,-3.39
2022-11-21T03:05:44.915Z,-3.29
2022-11-21T03:08:15.373Z,-3.18
2022-11-21T03:10:47.358Z,-3.41
2022-11-21T03:13:16.990Z,-3.54
2022-11-21T03:15:46.453Z,-3.64
2022-11-21T03:18:16.282Z,-3.77
2022-11-21T03:20:45.794Z,-3.78
2022-11-21T03:23:15.735Z,-3.71
2022-11-21T03:25:47.755Z,-3.74
2022-11-21T03:28:17.197Z,-3.75
2022-11-21T03:30:46.669Z,-3.72
2022-11-21T03:33:16.756Z,-3.73
2022-11-21T03:35:46.266Z,-3.83
2022-11-21T03:38:15.677Z,-3.87
2022-11-21T03:40:47.664Z,-3.75
2022-11-21T03:43:17.207Z,-3.71
2022-11-21T03:45:49.006Z,-3.82
2022-11-21T03:48:18.574Z,-3.82
2022-11-21T03:50:48.067Z,-3.78
2022-11-21T03:53:17.619Z,-3.76
2022-11-21T03:55:49.611Z,-3.77
2022-11-21T03:58:19.311Z,-3.83
2022-11-21T04:00:50.378Z,-3.73
2022-11-21T04:03:21.407Z,-3.72
2022-11-21T04:05:50.926Z,-3.77
2022-11-21T04:08:20.396Z,-3.89
2022-11-21T04:10:53.597Z,-3.99
2022-11-21T04:13:23.095Z,-3.97
2022-11-21T04:15:52.691Z,-3.97
2022-11-21T04:18:22.068Z,-3.92
2022-11-21T04:20:51.551Z,-3.96
2022-11-21T04:23:20.957Z,-4.03
2022-11-21T04:25:53.087Z,-4.03
2022-11-21T04:28:22.879Z,-4.08
2022-11-21T04:30:54.889Z,-4.14
2022-11-21T04:33:24.892Z,-4.12
2022-11-21T04:35:54.450Z,-4.06
2022-11-21T04:38:23.893Z,-4.00
2022-11-21T04:40:55.853Z,-3.98
2022-11-21T04:43:25.275Z,-3.95
2022-11-21T04:45:54.688Z,-3.97
2022-11-21T04:48:24.798Z,-4.02
2022-11-21T04:50:54.197Z,-4.11
2022-11-21T04:53:23.597Z,-4.15
2022-11-21T04:55:55.647Z,-4.13
2022-11-21T04:58:25.067Z,-4.12
2022-11-21T05:00:54.530Z,-4.06
2022-11-21T05:03:23.943Z,-3.99
2022-11-21T05:05:53.545Z,-4.01
2022-11-21T05:08:22.908Z,-3.99
2022-11-21T05:11:07.360Z,-4.04
2022-11-21T05:13:36.809Z,-3.97
2022-11-21T05:16:06.627Z,-4.00
2022-11-21T05:18:36.095Z,-3.90
2022-11-21T05:21:06.012Z,-3.84
2022-11-21T05:23:35.423Z,-3.88
2022-11-21T05:26:07.384Z,-4.04
2022-11-21T05:28:36.890Z,-4.10
2022-11-21T05:31:06.342Z,-4.12
2022-11-21T05:33:35.794Z,-3.94
2022-11-21T05:36:05.198Z,-3.80
2022-11-21T05:38:34.575Z,-3.79
2022-11-21T05:41:03.935Z,-3.77
2022-11-21T05:43:48.403Z,-3.99
2022-11-21T05:46:19.082Z,-3.13
2022-11-21T05:48:49.640Z,-3.58
2022-11-21T05:51:19.596Z,-3.91
2022-11-21T05:53:49.916Z,-4.11
2022-11-21T05:56:20.667Z,-4.14
2022-11-21T05:58:52.689Z,-4.16
2022-11-21T06:01:42.873Z,-4.21
2022-11-21T06:04:10.294Z,-4.21
2022-11-21T06:06:40.100Z,-4.15
2022-11-21T06:09:09.544Z,-4.21
2022-11-21T06:11:38.955Z,-4.21
2022-11-21T06:14:10.939Z,-4.09
2022-11-21T06:16:40.382Z,-4.18
2022-11-21T06:19:09.972Z,-4.21
2022-11-21T06:21:39.370Z,-4.20
2022-11-21T06:24:10.217Z,-4.22
2022-11-21T06:26:39.585Z,-4.21
2022-11-21T06:29:13.614Z,-4.19
2022-11-21T06:31:42.987Z,-4.20
2022-11-21T06:34:12.433Z,-4.22
2022-11-21T06:36:42.309Z,-4.22
2022-11-21T06:39:11.706Z,-4.26
2022-11-21T06:41:41.082Z,-4.27
2022-11-21T06:44:13.079Z,-4.38
2022-11-21T06:46:45.828Z,-4.42
2022-11-21T06:49:17.792Z,-4.44
2022-11-21T06:51:47.631Z,-4.43
2022-11-21T06:54:17.609Z,-4.44
2022-11-21T06:56:46.982Z,-4.44
2022-11-21T06:59:19.293Z,-4.43
2022-11-21T07:01:48.822Z,-4.42
2022-11-21T07:04:18.211Z,-4.32
2022-11-21T07:06:47.636Z,-4.36
2022-11-21T07:09:32.648Z,-4.37
2022-11-21T07:12:23.151Z,-4.09
2022-11-21T07:14:52.496Z,-4.20
2022-11-21T07:17:21.897Z,-4.30
2022-11-21T07:19:51.288Z,-4.24
2022-11-21T07:22:21.131Z,-4.12
2022-11-21T07:24:50.500Z,-3.99
2022-11-21T07:27:19.871Z,-4.04
2022-11-21T07:29:49.278Z,-4.09
2022-11-21T07:32:21.266Z,-4.08
2022-11-21T07:34:50.625Z,-4.07
2022-11-21T07:37:20.082Z,-4.05
2022-11-21T07:39:49.492Z,-4.03
2022-11-21T07:42:18.945Z,-3.97
2022-11-21T07:44:48.446Z,-3.91
2022-11-21T07:47:17.882Z,-3.94
2022-11-21T07:49:49.863Z,-3.84
2022-11-21T07:52:19.294Z,-3.86
2022-11-21T07:54:48.698Z,-3.84
2022-11-21T07:57:18.098Z,-3.91
2022-11-21T07:59:47.477Z,-3.84
2022-11-21T08:02:21.254Z,-3.85
2022-11-21T08:04:53.494Z,-3.86
2022-11-21T08:07:24.225Z,-3.83
2022-11-21T08:09:53.751Z,-3.84
2022-11-21T08:12:23.403Z,-3.70
2022-11-21T08:14:55.556Z,-3.68
2022-11-21T08:17:24.984Z,-3.64
2022-11-21T08:19:58.212Z,-3.67
2022-11-21T08:22:27.639Z,-3.61
2022-11-21T08:24:57.024Z,-3.54
2022-11-21T08:27:26.524Z,-3.55
2022-11-21T08:29:55.926Z,-3.47
2022-11-21T08:32:25.288Z,-3.37
2022-11-21T08:34:57.275Z,-3.32
2022-11-21T08:37:26.666Z,-3.30
2022-11-21T08:39:56.077Z,-3.32
2022-11-21T08:42:25.482Z,-3.30
2022-11-21T08:44:54.968Z,-3.34
2022-11-21T08:47:24.382Z,-3.30
2022-11-21T08:49:53.795Z,-3.37
2022-11-21T08:52:25.824Z,-3.24
2022-11-21T08:54:55.246Z,-3.28
2022-11-21T08:57:24.661Z,-3.34
2022-11-21T08:59:54.058Z,-3.22
2022-11-21T09:02:23.477Z,-3.19
2022-11-21T09:04:53.511Z,-3.10
2022-11-21T09:07:25.549Z,-3.01
2022-11-21T09:09:54.971Z,-2.94
2022-11-21T09:12:24.429Z,-2.94
2022-11-21T09:15:06.397Z,-2.89
2022-11-21T09:17:48.261Z,-2.63
2022-11-21T09:20:18.047Z,-2.58
2022-11-21T09:22:50.185Z,-2.65
2022-11-21T09:25:19.873Z,-2.48
2022-11-21T09:27:49.346Z,-2.35
2022-11-21T09:30:18.934Z,-2.31
2022-11-21T09:32:48.341Z,-2.32
2022-11-21T09:35:17.842Z,-2.14
2022-11-21T09:37:51.514Z,-2.15
2022-11-21T09:40:21.545Z,-2.12
2022-11-21T09:43:06.483Z,-2.19
2022-11-21T09:45:37.371Z,-2.10
2022-11-21T09:48:12.054Z,-2.10
2022-11-21T09:51:14.145Z,-2.01
2022-11-21T09:53:40.479Z,-1.81
2022-11-21T09:56:14.237Z,-1.64
2022-11-21T09:58:47.114Z,-1.48
2022-11-21T10:01:19.075Z,-1.32
2022-11-21T10:03:49.918Z,-1.28
2022-11-21T10:06:22.796Z,-1.19
2022-11-21T10:08:59.904Z,-1.15
2022-11-21T10:12:00.385Z,-1.05
2022-11-21T10:14:39.761Z,-1.07
2022-11-21T10:17:20.901Z,-1.02
2022-11-21T10:20:10.229Z,-0.95
2022-11-21T10:22:53.861Z,-0.92
2022-11-21T10:25:27.852Z,-0.91
2022-11-21T10:28:00.129Z,-1.09
2022-11-21T10:30:29.865Z,-1.01
2022-11-21T10:33:01.410Z,-0.90
2022-11-21T10:35:36.649Z,-0.83
2022-11-21T10:38:20.467Z,-0.74
2022-11-21T10:40:54.412Z,-0.69
2022-11-21T10:43:44.047Z,-0.60
2022-11-21T10:46:14.511Z,-0.76
2022-11-21T10:48:43.930Z,-0.90
2022-11-21T10:51:28.935Z,-0.64
2022-11-21T10:54:21.732Z,-0.71
2022-11-21T10:56:55.015Z,-0.59
2022-11-21T10:59:30.733Z,-0.73
2022-11-21T11:02:02.229Z,-0.66
2022-11-21T11:04:40.698Z,-0.72
2022-11-21T11:07:27.232Z,-0.73
2022-11-21T11:10:17.343Z,-0.34
2022-11-21T11:13:08.701Z,-0.28
2022-11-21T11:16:01.759Z,-0.31
2022-11-21T11:18:31.512Z,-0.18
2022-11-21T11:21:15.102Z,-0.61
2022-11-21T11:23:44.963Z,-0.55
2022-11-21T11:26:24.481Z,-0.24
2022-11-21T11:28:58.237Z,-0.05
2022-11-21T11:31:27.705Z,0.20
2022-11-21T11:33:58.531Z,0.32
2022-11-21T11:36:40.022Z,0.48
2022-11-21T11:39:17.084Z,0.33
2022-11-21T11:42:16.773Z,0.36
2022-11-21T11:45:07.124Z,0.36
2022-11-21T11:47:41.883Z,0.44
2022-11-21T11:50:15.656Z,0.53
2022-11-21T11:52:57.100Z,0.62
2022-11-21T11:55:29.618Z,0.45
2022-11-21T11:58:02.565Z,0.59
2022-11-21T12:00:41.624Z,0.73
2022-11-21T12:03:16.120Z,0.71
2022-11-21T12:05:56.755Z,0.72
2022-11-21T12:08:45.999Z,0.90
2022-11-21T12:11:42.505Z,1.55
2022-11-21T12:14:48.443Z,1.39
2022-11-21T12:17:23.197Z,1.52
2022-11-21T12:19:53.551Z,1.86
2022-11-21T12:22:23.600Z,1.47
2022-11-21T12:24:53.035Z,1.86
2022-11-21T12:27:29.594Z,1.72
2022-11-21T12:30:12.011Z,1.74
2022-11-21T12:32:55.693Z,1.97
2022-11-21T12:35:39.284Z,1.99
2022-11-21T12:38:17.690Z,2.15
2022-11-21T12:40:51.512Z,2.37
2022-11-21T12:43:25.563Z,2.29
2022-11-21T12:45:59.071Z,2.52
2022-11-21T12:48:53.664Z,2.61
2022-11-21T12:52:01.287Z,2.87
2022-11-21T12:55:04.932Z,2.95
2022-11-21T12:57:44.808Z,2.93
2022-11-21T13:00:20.315Z,3.28
2022-11-21T13:03:08.467Z,3.54
2022-11-21T13:05:43.689Z,3.18
2022-11-21T13:08:17.653Z,3.17
2022-11-21T13:11:13.799Z,3.03
2022-11-21T13:13:45.312Z,3.05
2022-11-21T13:16:36.628Z,3.07
2022-11-21T13:19:15.745Z,3.10
2022-11-21T13:21:50.508Z,3.27
2022-11-21T13:24:50.310Z,3.37
2022-11-21T13:27:33.549Z,3.99
2022-11-21T13:30:24.599Z,3.67
2022-11-21T13:32:54.997Z,3.80
2022-11-21T13:36:09.362Z,3.58
2022-11-21T13:39:08.857Z,3.51
2022-11-21T13:42:20.570Z,4.57
2022-11-21T13:44:50.903Z,4.21
2022-11-21T13:47:46.176Z,3.82
2022-11-21T13:50:24.957Z,4.01
2022-11-21T13:53:01.966Z,4.63
2022-11-21T13:55:51.621Z,3.47
2022-11-21T13:58:33.324Z,3.12
2022-11-21T14:01:24.516Z,3.32
2022-11-21T14:04:08.907Z,2.95
2022-11-21T14:06:39.924Z,2.77
2022-11-21T14:09:20.339Z,2.67
2022-11-21T14:11:51.643Z,2.45
2022-11-21T14:14:42.417Z,2.32
2022-11-21T14:17:32.800Z,2.16
2022-11-21T14:20:04.004Z,2.09
2022-11-21T14:22:43.854Z,1.99
2022-11-21T14:25:19.472Z,1.74
2022-11-21T14:27:50.790Z,1.55
2022-11-21T14:30:37.855Z,1.40
2022-11-21T14:33:29.182Z,1.35
2022-11-21T14:36:02.230Z,1.26
2022-11-21T14:38:33.252Z,1.32
2022-11-21T14:41:35.279Z,1.38
2022-11-21T14:44:20.467Z,1.42
2022-11-21T14:46:53.572Z,1.38
2022-11-21T14:49:26.391Z,1.28
2022-11-21T14:52:04.265Z,1.21
2022-11-21T14:54:35.947Z,0.93
2022-11-21T14:57:10.389Z,0.96
2022-11-21T14:59:43.122Z,1.03
2022-11-21T15:02:18.705Z,0.92
2022-11-21T15:04:50.403Z,0.69
2022-11-21T15:07:31.357Z,0.50
2022-11-21T15:12:55.852Z,0.48
2022-11-21T15:15:31.329Z,0.49
2022-11-21T15:18:27.997Z,0.27
2022-11-21T15:20:56.725Z,0.20
2022-11-21T15:23:30.647Z,0.08
2022-11-21T15:26:01.639Z,0.12
2022-11-21T15:28:32.285Z,0.18
2022-11-21T15:31:17.402Z,0.28
2022-11-21T15:37:05.259Z,0.21
2022-11-21T15:39:36.105Z,0.15
2022-11-21T15:42:35.763Z,0.01
2022-11-21T15:45:07.055Z,0.00
2022-11-21T15:47:36.815Z,-0.04
2022-11-21T15:50:09.806Z,-0.11
2022-11-21T15:52:48.270Z,-0.19
2022-11-21T15:55:22.562Z,-0.06
2022-11-21T15:57:52.039Z,-0.04
2022-11-21T16:00:21.732Z,-0.09
2022-11-21T16:02:51.769Z,-0.16
2022-11-21T16:05:23.809Z,-0.20
2022-11-21T16:07:53.337Z,-0.28
2022-11-21T16:10:27.572Z,-0.39
2022-11-21T16:12:57.889Z,-0.53
2022-11-21T16:15:27.535Z,-0.56
2022-11-21T16:17:57.007Z,-0.65
2022-11-21T16:20:29.078Z,-0.71
2022-11-21T16:22:58.564Z,-0.68
2022-11-21T16:25:28.026Z,-0.73
2022-11-21T16:27:59.784Z,-0.73
2022-11-21T16:30:30.257Z,-0.77
2022-11-21T16:32:59.830Z,-0.73
2022-11-21T16:35:32.367Z,-0.77
2022-11-21T16:38:01.856Z,-0.87
2022-11-21T16:40:31.296Z,-0.92
2022-11-21T16:43:10.124Z,-0.94
2022-11-21T16:45:40.087Z,-0.92
2022-11-21T16:48:09.730Z,-1.06
2022-11-21T16:50:41.733Z,-1.20
2022-11-21T16:53:11.440Z,-1.14
2022-11-21T16:55:40.929Z,-1.16
2022-11-21T16:58:10.364Z,-1.13
2022-11-21T17:00:39.921Z,-1.07
2022-11-21T17:03:09.432Z,-1.12
2022-11-21T17:05:41.467Z,-1.23
2022-11-21T17:08:10.999Z,-1.34
2022-11-21T17:10:40.453Z,-1.31
2022-11-21T17:13:10.039Z,-1.41
2022-11-21T17:15:39.609Z,-1.43
2022-11-21T17:18:09.071Z,-1.38
2022-11-21T17:20:41.168Z,-0.48
2022-11-21T17:23:10.599Z,1.63
2022-11-21T17:25:40.080Z,0.94
2022-11-21T17:28:09.563Z,0.67
2022-11-21T17:30:44.169Z,1.07
2022-11-21T17:33:13.687Z,1.39
2022-11-21T17:35:46.712Z,1.85
2022-11-21T17:38:17.185Z,1.22
2022-11-21T17:40:46.696Z,1.83
2022-11-21T17:43:16.119Z,1.60
2022-11-21T17:45:46.972Z,0.82
2022-11-21T17:48:16.384Z,0.46
2022-11-21T17:50:48.449Z,0.27
2022-11-21T17:53:17.935Z,-0.25
2022-11-21T17:55:47.993Z,-0.65
2022-11-21T17:58:17.462Z,-0.43
2022-11-21T18:00:46.961Z,-0.42
2022-11-21T18:03:16.426Z,-0.17
2022-11-21T18:05:51.626Z,-0.47
2022-11-21T18:08:21.440Z,-0.54
2022-11-21T18:10:54.693Z,-0.58
2022-11-21T18:13:24.269Z,-0.53
2022-11-21T18:15:53.752Z,-0.90
2022-11-21T18:18:23.667Z,-1.10
2022-11-21T18:20:55.748Z,-1.31
2022-11-21T18:23:26.263Z,-1.40
2022-11-21T18:25:55.739Z,-1.44
2022-11-21T18:28:25.225Z,-1.60
2022-11-21T18:30:56.008Z,-1.74
2022-11-21T18:33:25.578Z,-1.90
2022-11-21T18:35:57.674Z,-2.03
2022-11-21T18:38:47.283Z,-2.05
2022-11-21T18:41:18.572Z,-2.13
2022-11-21T18:43:52.429Z,-2.19
2022-11-21T18:46:23.160Z,-2.22
2022-11-21T18:49:08.739Z,-2.31
2022-11-21T18:51:40.890Z,-2.33
2022-11-21T18:54:11.134Z,-2.14
2022-11-21T18:56:42.752Z,-2.01
2022-11-21T18:59:12.276Z,-2.10
2022-11-21T19:01:42.160Z,-2.29
2022-11-21T19:04:11.667Z,-2.39
2022-11-21T19:06:43.767Z,-2.45
2022-11-21T19:09:14.824Z,-2.51
2022-11-21T19:11:44.448Z,-2.55
2022-11-21T19:14:14.117Z,-2.62
2022-11-21T19:16:43.621Z,-2.68
2022-11-21T19:22:07.456Z,-2.77
2022-11-21T19:24:36.896Z,-2.80
2022-11-21T19:27:07.784Z,-2.85
2022-11-21T19:29:37.343Z,-2.87
2022-11-21T19:32:07.461Z,-2.82
2022-11-21T19:34:37.007Z,-2.79
2022-11-21T19:37:09.309Z,-2.83
2022-11-21T19:39:38.719Z,-2.92
2022-11-21T19:42:08.229Z,-2.91
2022-11-21T19:44:37.624Z,-2.90
2022-11-21T19:47:07.110Z,-2.87
2022-11-21T19:49:36.566Z,-2.90
2022-11-21T19:52:08.804Z,-2.88
2022-11-21T19:54:38.440Z,-2.88
2022-11-21T19:57:13.518Z,-2.84
2022-11-21T19:59:46.615Z,-2.83
2022-11-21T20:02:19.346Z,-2.82
2022-11-21T20:04:48.992Z,-2.90
2022-11-21T20:07:21.222Z,-2.93
2022-11-21T20:09:50.712Z,-2.91
2022-11-21T20:12:20.153Z,-2.86
2022-11-21T20:14:49.616Z,-2.89
2022-11-21T20:17:19.252Z,-2.88
2022-11-21T20:19:50.755Z,-2.89
2022-11-21T20:22:23.266Z,-2.89
2022-11-21T20:24:52.678Z,-2.95
2022-11-21T20:27:22.248Z,-2.94
2022-11-21T20:29:51.696Z,-2.97
2022-11-21T20:32:21.218Z,-2.98
2022-11-21T20:34:50.740Z,-2.93
2022-11-21T20:37:23.007Z,-2.85
2022-11-21T20:39:52.542Z,-2.94
2022-11-21T20:42:22.015Z,-2.94
2022-11-21T20:47:40.939Z,-2.95
2022-11-21T20:50:25.742Z,-2.82
2022-11-21T20:55:54.707Z,-2.92
2022-11-21T20:58:24.179Z,-2.94
2022-11-21T21:00:53.697Z,-2.96
2022-11-21T21:03:23.173Z,-3.01
2022-11-21T21:05:57.205Z,-3.04
2022-11-21T21:08:30.384Z,-3.06
2022-11-21T21:11:06.345Z,-2.99
2022-11-21T21:13:36.587Z,-3.04
2022-11-21T21:16:07.501Z,-3.08
2022-11-21T21:18:37.776Z,-3.08
2022-11-21T21:21:16.839Z,-3.14
2022-11-21T21:23:51.021Z,-3.14
2022-11-21T21:26:22.786Z,-3.11
2022-11-21T21:28:52.433Z,-3.08
2022-11-21T21:31:24.166Z,-3.06
2022-11-21T21:33:53.928Z,-3.02
2022-11-21T21:36:25.394Z,-3.02
2022-11-21T21:38:59.149Z,-3.12
2022-11-21T21:41:30.683Z,-3.12
2022-11-21T21:44:00.549Z,-3.16
2022-11-21T21:46:30.572Z,-3.20
2022-11-21T21:49:00.754Z,-3.13
2022-11-21T21:51:31.514Z,-3.09
2022-11-21T21:54:03.590Z,-3.13
2022-11-21T21:56:33.631Z,-3.13
2022-11-21T21:59:03.148Z,-3.12
2022-11-21T22:01:34.209Z,-3.14
2022-11-21T22:04:05.256Z,-3.16
2022-11-21T22:06:35.955Z,-3.17
2022-11-21T22:09:07.992Z,-3.20
2022-11-21T22:11:39.420Z,-3.19
2022-11-21T22:14:13.331Z,-3.16
2022-11-21T22:16:43.159Z,-3.15
2022-11-21T22:19:12.718Z,-3.16
2022-11-21T22:21:42.427Z,-3.15
2022-11-21T22:24:27.167Z,-3.17
2022-11-21T22:26:57.495Z,-3.10
2022-11-21T22:29:26.974Z,-3.04
2022-11-21T22:31:56.547Z,-3.03
2022-11-21T22:34:26.675Z,-3.02
2022-11-21T22:36:56.224Z,-3.02
2022-11-21T22:39:28.371Z,-3.02
2022-11-21T22:41:59.991Z,-3.02
2022-11-21T22:44:29.854Z,-2.93
2022-11-21T22:46:59.732Z,-2.93
2022-11-21T22:49:29.275Z,-3.02
2022-11-21T22:51:58.837Z,-2.97
2022-11-21T22:54:31.241Z,-3.02
2022-11-21T22:57:00.882Z,-3.03
2022-11-21T22:59:30.400Z,-3.01
2022-11-21T23:02:00.008Z,-3.09
2022-11-21T23:04:29.632Z,-3.04
2022-11-21T23:07:00.134Z,-3.05
2022-11-21T23:09:32.420Z,-2.98
2022-11-21T23:12:02.038Z,-2.97
2022-11-21T23:14:31.560Z,-3.03
2022-11-21T23:17:01.396Z,-3.00
2022-11-21T23:19:31.181Z,-3.01
2022-11-21T23:22:01.139Z,-3.03
2022-11-21T23:24:33.214Z,-3.00
2022-11-21T23:27:02.757Z,-2.97
2022-11-21T23:29:32.412Z,-2.99
2022-11-21T23:32:01.935Z,-3.02
2022-11-21T23:34:31.404Z,-3.05
2022-11-21T23:37:00.921Z,-3.03
2022-11-21T23:39:33.032Z,-2.92
2022-11-21T23:42:02.561Z,-2.91
2022-11-21T23:44:32.245Z,-2.94
2022-11-21T23:47:01.732Z,-2.98
2022-11-21T23:49:31.425Z,-3.02
2022-11-21T23:52:01.116Z,-2.95
2022-11-21T23:54:33.237Z,-2.90
2022-11-21T23:57:03.035Z,-2.88
2022-11-21T23:59:32.769Z,-2.88
